Oakland Gardens, New York
Current Conditions -  °F | °C
As of 8:51 AM on Friday 19 Dec 2014 (Local Time) from KLGA Reporting Station
Overcast Overcast  
Wind Chill: 25°   Ceiling: 3600
Heat Index: 35°   Visibility: 10mi
Dew Point: 23°   Wind: 16mph
Humidity: 61%   Direction: 330°NNW
Pressure: 30.05"   Gusts: NA
Location:  40.75°N, 73.77°W
Report Text: KLGA 191351Z 33014KT 10SM OVC036 02/M05 A3005 RMK AO2 SLP174 T00171050
Loading
Personal Weather Stations






























Interactive Weather Map New forecast layout! Learn more

10-Day Weather Forecast

Advertisements
Track Severe Weather on mobile